createdAt,value
2023-05-23T00:00:21.557Z,3.23
2023-05-23T00:02:49.592Z,3.80
2023-05-23T00:05:17.979Z,3.50
2023-05-23T00:07:46.119Z,3.70
2023-05-23T00:10:14.090Z,3.40
2023-05-23T00:12:42.415Z,3.57
2023-05-23T00:15:10.007Z,3.40
2023-05-23T00:17:38.243Z,3.63
2023-05-23T00:20:05.572Z,3.80
2023-05-23T00:22:32.740Z,3.83
2023-05-23T00:25:02.109Z,3.90
2023-05-23T00:27:29.280Z,3.77
2023-05-23T00:29:57.034Z,4.00
2023-05-23T00:32:24.164Z,4.23
2023-05-23T00:34:54.139Z,3.80
2023-05-23T00:37:22.603Z,4.30
2023-05-23T00:39:49.872Z,3.97
2023-05-23T00:42:17.089Z,3.90
2023-05-23T00:44:44.204Z,4.80
2023-05-23T00:47:13.799Z,4.20
2023-05-23T00:49:41.429Z,3.97
2023-05-23T00:52:08.875Z,4.47
2023-05-23T00:54:37.251Z,4.60
2023-05-23T00:57:04.505Z,4.70
2023-05-23T00:59:31.825Z,4.70
2023-05-23T01:02:00.331Z,4.70
2023-05-23T01:04:28.238Z,4.37
2023-05-23T01:06:55.646Z,4.93
2023-05-23T01:09:23.581Z,5.03
2023-05-23T01:11:56.590Z,4.53
2023-05-23T01:14:29.087Z,4.50
2023-05-23T01:17:01.133Z,4.90
2023-05-23T01:19:46.915Z,4.87
2023-05-23T01:22:22.008Z,5.00
2023-05-23T01:25:04.362Z,4.60
2023-05-23T01:27:41.184Z,4.33
2023-05-23T01:30:10.888Z,5.10
2023-05-23T01:32:38.175Z,5.13
2023-05-23T01:35:06.268Z,5.60
2023-05-23T01:37:33.421Z,5.33
2023-05-23T01:40:00.659Z,5.60
2023-05-23T01:42:28.506Z,5.13
2023-05-23T01:44:59.198Z,5.37
2023-05-23T01:47:27.375Z,5.23
2023-05-23T01:49:55.751Z,5.23
2023-05-23T01:52:23.244Z,5.60
2023-05-23T01:54:50.732Z,5.43
2023-05-23T01:57:18.665Z,5.30
2023-05-23T01:59:45.796Z,5.27
2023-05-23T02:02:12.929Z,5.20
2023-05-23T02:04:40.387Z,5.00
2023-05-23T02:07:07.611Z,5.23
2023-05-23T02:09:34.711Z,5.30
2023-05-23T02:12:01.824Z,4.90
2023-05-23T02:14:28.929Z,4.87
2023-05-23T02:16:56.083Z,4.80
2023-05-23T02:19:23.487Z,5.10
2023-05-23T02:21:50.657Z,5.20
2023-05-23T02:24:17.772Z,5.20
2023-05-23T02:26:44.906Z,5.03
2023-05-23T02:29:12.033Z,4.67
2023-05-23T02:31:39.162Z,5.10
2023-05-23T02:34:06.708Z,4.80
2023-05-23T02:36:34.133Z,4.80
2023-05-23T02:39:01.271Z,5.00
2023-05-23T02:41:28.730Z,5.47
2023-05-23T02:43:55.917Z,4.80
2023-05-23T02:46:23.070Z,4.43
2023-05-23T02:48:50.529Z,4.90
2023-05-23T02:51:20.350Z,4.53
2023-05-23T02:53:47.480Z,4.33
2023-05-23T02:56:16.432Z,4.20
2023-05-23T02:58:43.564Z,4.27
2023-05-23T03:01:10.676Z,4.00
2023-05-23T03:03:37.929Z,3.87
2023-05-23T03:06:06.298Z,4.17
2023-05-23T03:08:33.473Z,4.17
2023-05-23T03:11:00.981Z,4.40
2023-05-23T03:13:29.210Z,4.03
2023-05-23T03:15:56.416Z,3.83
2023-05-23T03:18:23.784Z,4.57
2023-05-23T03:20:50.927Z,4.30
2023-05-23T03:23:18.113Z,4.20
2023-05-23T03:25:45.619Z,4.23
2023-05-23T03:28:12.889Z,4.20
2023-05-23T03:30:40.038Z,4.03
2023-05-23T03:33:07.474Z,4.20
2023-05-23T03:35:34.670Z,4.23
2023-05-23T03:38:01.799Z,3.97
2023-05-23T03:40:29.343Z,4.17
2023-05-23T03:43:06.689Z,4.10
2023-05-23T03:45:34.402Z,4.07
2023-05-23T03:48:01.804Z,4.20
2023-05-23T03:50:29.046Z,4.30
2023-05-23T03:52:56.657Z,3.87
2023-05-23T03:55:24.130Z,4.40
2023-05-23T03:57:54.648Z,4.20
2023-05-23T04:00:22.297Z,4.47
2023-05-23T04:02:51.972Z,4.80
2023-05-23T04:05:19.259Z,4.50
2023-05-23T04:07:46.710Z,4.57
2023-05-23T04:10:13.902Z,4.70
2023-05-23T04:12:41.768Z,4.83
2023-05-23T04:15:09.364Z,4.80
2023-05-23T04:17:38.999Z,4.93
2023-05-23T04:20:10.219Z,4.57
2023-05-23T04:22:37.489Z,4.73
2023-05-23T04:25:05.001Z,4.93
2023-05-23T04:27:32.172Z,5.23
2023-05-23T04:30:00.561Z,5.37
2023-05-23T04:32:28.085Z,4.97
2023-05-23T04:34:56.878Z,5.00
2023-05-23T04:37:26.189Z,5.40
2023-05-23T04:39:53.926Z,4.93
2023-05-23T04:42:24.562Z,5.63
2023-05-23T04:44:58.185Z,4.60
2023-05-23T04:47:28.371Z,5.30
2023-05-23T04:49:57.133Z,4.90
2023-05-23T04:52:27.821Z,4.83
2023-05-23T04:54:56.003Z,5.17
2023-05-23T04:57:23.257Z,5.10
2023-05-23T04:59:50.984Z,4.83
2023-05-23T05:02:18.105Z,5.03
2023-05-23T05:04:45.648Z,4.80
2023-05-23T05:07:12.801Z,4.90
2023-05-23T05:09:39.948Z,5.17
2023-05-23T05:12:07.255Z,4.90
2023-05-23T05:14:34.761Z,4.67
2023-05-23T05:17:02.779Z,5.30
2023-05-23T05:19:30.277Z,5.60
2023-05-23T05:21:57.920Z,5.37
2023-05-23T05:24:25.255Z,5.87
2023-05-23T05:26:52.402Z,5.40
2023-05-23T05:29:19.537Z,5.43
2023-05-23T05:31:47.166Z,6.17
2023-05-23T05:34:14.308Z,6.13
2023-05-23T05:36:47.966Z,6.43
2023-05-23T05:39:15.622Z,6.20
2023-05-23T05:41:42.744Z,6.73
2023-05-23T05:44:11.115Z,7.07
2023-05-23T05:46:38.290Z,6.13
2023-05-23T05:49:05.444Z,6.30
2023-05-23T05:51:32.612Z,6.40
2023-05-23T05:53:59.764Z,7.10
2023-05-23T05:56:27.892Z,6.83
2023-05-23T05:58:55.094Z,6.90
2023-05-23T06:01:22.294Z,7.10
2023-05-23T06:03:49.719Z,7.23
2023-05-23T06:06:17.139Z,7.43
2023-05-23T06:08:44.469Z,7.77
2023-05-23T06:11:12.209Z,8.10
2023-05-23T06:13:39.475Z,8.57
2023-05-23T06:16:07.222Z,8.60
2023-05-23T06:18:34.489Z,9.13
2023-05-23T06:21:01.659Z,9.47
2023-05-23T06:23:28.807Z,10.57
2023-05-23T06:25:55.924Z,11.10
2023-05-23T06:28:23.122Z,10.70
2023-05-23T06:30:50.343Z,10.60
2023-05-23T06:33:17.704Z,10.93
2023-05-23T06:35:44.884Z,10.77
2023-05-23T06:38:12.114Z,10.60
2023-05-23T06:40:39.509Z,10.97
2023-05-23T06:43:06.921Z,10.80
2023-05-23T06:45:35.917Z,11.43
2023-05-23T06:48:03.232Z,10.87
2023-05-23T06:50:30.828Z,9.97
2023-05-23T06:52:57.989Z,10.60
2023-05-23T06:55:25.188Z,10.17
2023-05-23T06:57:53.021Z,10.50
2023-05-23T07:00:20.385Z,9.97
2023-05-23T07:02:48.670Z,10.70
2023-05-23T07:05:17.434Z,10.30
2023-05-23T07:07:44.763Z,9.90
2023-05-23T07:10:11.968Z,9.90
2023-05-23T07:12:39.225Z,10.13
2023-05-23T07:15:06.657Z,10.30
2023-05-23T07:17:33.897Z,9.97
2023-05-23T07:20:02.643Z,9.50
2023-05-23T07:22:29.743Z,9.73
2023-05-23T07:24:56.840Z,9.63
2023-05-23T07:27:24.343Z,9.13
2023-05-23T07:29:51.601Z,8.77
2023-05-23T07:32:18.687Z,9.30
2023-05-23T07:34:46.183Z,8.67
2023-05-23T07:37:13.329Z,9.03
2023-05-23T07:39:40.458Z,8.80
2023-05-23T07:42:07.921Z,8.13
2023-05-23T07:44:35.030Z,8.50
2023-05-23T07:47:02.206Z,7.80
2023-05-23T07:49:29.532Z,7.40
2023-05-23T07:51:56.750Z,7.73
2023-05-23T07:54:23.845Z,7.23
2023-05-23T07:56:51.284Z,7.80
2023-05-23T07:59:18.567Z,7.83
2023-05-23T08:01:45.738Z,7.63
2023-05-23T08:04:13.273Z,7.37
2023-05-23T08:06:45.749Z,7.43
2023-05-23T08:09:26.335Z,7.07
2023-05-23T08:11:53.453Z,7.17
2023-05-23T08:14:21.672Z,7.67
2023-05-23T08:16:49.121Z,7.70
2023-05-23T08:19:16.610Z,7.37
2023-05-23T08:21:43.859Z,7.83
2023-05-23T08:24:14.903Z,7.33
2023-05-23T08:26:42.529Z,7.77
2023-05-23T08:29:12.696Z,8.30
2023-05-23T08:31:39.966Z,8.30
2023-05-23T08:34:08.072Z,8.30
2023-05-23T08:36:36.346Z,8.30
2023-05-23T08:39:04.392Z,8.73
2023-05-23T08:41:34.066Z,8.23
2023-05-23T08:44:01.204Z,8.13
2023-05-23T08:46:28.401Z,8.60
2023-05-23T08:48:55.911Z,8.40
2023-05-23T08:51:23.650Z,8.27
2023-05-23T08:53:53.108Z,8.27
2023-05-23T08:56:21.100Z,8.53
2023-05-23T08:58:48.531Z,7.47
2023-05-23T09:01:19.842Z,7.30
2023-05-23T09:03:47.062Z,7.37
2023-05-23T09:06:14.195Z,7.80
2023-05-23T09:08:41.966Z,7.20
2023-05-23T09:11:12.654Z,7.07
2023-05-23T09:13:42.591Z,7.23
2023-05-23T09:16:12.894Z,7.83
2023-05-23T09:18:41.508Z,9.17
2023-05-23T09:21:09.982Z,9.40
2023-05-23T09:23:39.428Z,10.20
2023-05-23T09:26:08.264Z,11.07
2023-05-23T09:28:36.093Z,11.80
2023-05-23T09:31:04.311Z,11.93
2023-05-23T09:33:40.709Z,12.00
2023-05-23T09:36:08.223Z,12.33
2023-05-23T09:38:39.393Z,13.33
2023-05-23T09:41:06.753Z,13.17
2023-05-23T09:43:34.354Z,13.60
2023-05-23T09:46:02.027Z,14.73
2023-05-23T09:48:33.334Z,15.27
2023-05-23T09:51:04.584Z,15.87
2023-05-23T09:53:31.762Z,15.03
2023-05-23T09:56:01.100Z,15.83
2023-05-23T09:58:32.524Z,14.97
2023-05-23T10:01:07.064Z,14.90
2023-05-23T10:03:46.449Z,12.73
2023-05-23T10:06:26.027Z,12.33
2023-05-23T10:09:01.779Z,12.90
2023-05-23T10:11:35.052Z,13.07
2023-05-23T10:14:03.182Z,12.10
2023-05-23T10:16:49.347Z,11.50
2023-05-23T10:19:27.120Z,9.73
2023-05-23T10:22:02.848Z,9.17
2023-05-23T10:24:30.340Z,8.67
2023-05-23T10:26:58.128Z,7.87
2023-05-23T10:29:25.778Z,7.37
2023-05-23T10:31:53.679Z,6.50
2023-05-23T10:34:30.190Z,6.30
2023-05-23T10:37:04.386Z,6.00
2023-05-23T10:39:34.882Z,6.10
2023-05-23T10:42:17.697Z,5.83
2023-05-23T10:44:44.962Z,6.23
2023-05-23T10:47:13.033Z,5.50
2023-05-23T10:49:43.491Z,7.33
2023-05-23T10:52:15.490Z,7.10
2023-05-23T10:54:42.609Z,6.43
2023-05-23T10:57:10.913Z,6.30
2023-05-23T10:59:39.159Z,6.57
2023-05-23T11:02:10.609Z,5.90
2023-05-23T11:04:37.820Z,6.03
2023-05-23T11:07:05.429Z,5.77
2023-05-23T11:09:32.552Z,5.57
2023-05-23T11:11:59.664Z,5.60
2023-05-23T11:14:34.311Z,5.10
2023-05-23T11:17:02.160Z,5.67
2023-05-23T11:19:30.166Z,4.77
2023-05-23T11:22:02.201Z,5.27
2023-05-23T11:24:52.761Z,5.77
2023-05-23T11:27:37.830Z,5.83
2023-05-23T11:30:08.088Z,5.47
2023-05-23T11:32:35.502Z,5.60
2023-05-23T11:35:04.175Z,5.20
2023-05-23T11:37:32.033Z,5.47
2023-05-23T11:39:59.505Z,5.57
2023-05-23T11:42:26.784Z,5.67
2023-05-23T11:44:54.325Z,5.40
2023-05-23T11:47:21.613Z,5.30
2023-05-23T11:49:49.286Z,5.50
2023-05-23T11:52:16.466Z,5.03
2023-05-23T11:54:43.825Z,6.07
2023-05-23T11:57:14.739Z,5.73
2023-05-23T11:59:42.323Z,5.90
2023-05-23T12:02:09.550Z,6.07
2023-05-23T12:04:37.329Z,5.90
2023-05-23T12:07:07.999Z,5.73
2023-05-23T12:09:44.973Z,6.00
2023-05-23T12:12:12.921Z,6.10
2023-05-23T12:14:44.731Z,6.07
2023-05-23T12:17:14.375Z,6.00
2023-05-23T12:19:47.358Z,6.63
2023-05-23T12:22:14.488Z,6.30
2023-05-23T12:24:50.535Z,6.67
2023-05-23T12:27:18.650Z,6.37
2023-05-23T12:29:51.604Z,6.13
2023-05-23T12:32:18.855Z,5.80
2023-05-23T12:34:46.134Z,6.87
2023-05-23T12:39:45.394Z,6.77
2023-05-23T12:42:12.874Z,6.93
2023-05-23T12:44:42.472Z,7.30
2023-05-23T12:47:10.553Z,6.20
2023-05-23T12:49:38.311Z,5.10
2023-05-23T12:52:05.501Z,5.50
2023-05-23T12:54:32.676Z,5.63
2023-05-23T12:56:59.826Z,5.03
2023-05-23T12:59:27.137Z,5.30
2023-05-23T13:01:54.816Z,4.50
2023-05-23T13:04:22.073Z,4.17
2023-05-23T13:06:49.323Z,3.67
2023-05-23T13:09:16.732Z,3.60
2023-05-23T13:11:44.277Z,3.40
2023-05-23T13:14:11.874Z,3.40
2023-05-23T13:16:39.371Z,3.50
2023-05-23T13:19:07.099Z,3.30
2023-05-23T13:21:34.398Z,3.83
2023-05-23T13:24:01.509Z,3.63
2023-05-23T13:26:28.628Z,3.30
2023-05-23T13:28:56.281Z,3.10
2023-05-23T13:31:23.473Z,3.10
2023-05-23T13:33:50.942Z,3.20
2023-05-23T13:36:18.284Z,3.53
2023-05-23T13:38:45.426Z,3.60
2023-05-23T13:41:12.580Z,4.13
2023-05-23T13:43:39.741Z,3.83
2023-05-23T13:46:06.937Z,3.90
2023-05-23T13:48:34.135Z,3.57
2023-05-23T13:51:02.108Z,3.80
2023-05-23T13:53:29.314Z,3.60
2023-05-23T13:55:56.448Z,3.90
2023-05-23T13:58:23.567Z,3.67
2023-05-23T14:00:50.738Z,3.77
2023-05-23T14:03:19.297Z,3.30
2023-05-23T14:05:46.502Z,3.30
2023-05-23T14:08:14.070Z,3.27
2023-05-23T14:10:41.806Z,2.93
2023-05-23T14:13:09.692Z,2.93
2023-05-23T14:15:38.397Z,3.27
2023-05-23T14:18:05.871Z,2.80
2023-05-23T14:20:33.238Z,2.90
2023-05-23T14:23:00.437Z,2.90
2023-05-23T14:25:27.640Z,2.40
2023-05-23T14:27:54.907Z,2.37
2023-05-23T14:30:22.053Z,2.10
2023-05-23T14:32:49.834Z,2.07
2023-05-23T14:35:17.237Z,1.93
2023-05-23T14:37:46.244Z,1.90
2023-05-23T14:40:14.219Z,1.93
2023-05-23T14:42:41.462Z,1.93
2023-05-23T14:45:09.087Z,1.83
2023-05-23T14:47:37.329Z,2.20
2023-05-23T14:50:05.029Z,2.07
2023-05-23T14:52:32.360Z,2.30
2023-05-23T14:55:01.054Z,2.50
2023-05-23T14:57:29.005Z,3.03
2023-05-23T14:59:56.475Z,3.00
2023-05-23T15:02:23.734Z,3.10
2023-05-23T15:04:51.055Z,2.67
2023-05-23T15:07:18.338Z,3.00
2023-05-23T15:09:46.161Z,2.87
2023-05-23T15:12:15.203Z,3.07
2023-05-23T15:14:43.516Z,3.00
2023-05-23T15:17:12.953Z,3.23
2023-05-23T15:19:42.970Z,2.80
2023-05-23T15:22:18.768Z,3.30
2023-05-23T15:24:49.618Z,3.23
2023-05-23T15:27:20.151Z,3.23
2023-05-23T15:29:48.640Z,3.13
2023-05-23T15:32:16.241Z,3.00
2023-05-23T15:34:43.893Z,3.13
2023-05-23T15:37:11.088Z,2.93
2023-05-23T15:39:38.259Z,3.00
2023-05-23T15:42:05.762Z,3.20
2023-05-23T15:44:32.958Z,2.80
2023-05-23T15:47:00.196Z,2.70
2023-05-23T15:49:27.584Z,2.90
2023-05-23T15:51:55.420Z,2.50
2023-05-23T15:54:22.931Z,2.30
2023-05-23T15:56:50.074Z,2.40
2023-05-23T15:59:17.253Z,2.30
2023-05-23T16:01:44.985Z,1.97
2023-05-23T16:04:12.336Z,2.50
2023-05-23T16:06:40.188Z,2.30
2023-05-23T16:09:07.362Z,2.10
2023-05-23T16:11:34.529Z,2.20
2023-05-23T16:14:01.722Z,2.00
2023-05-23T16:16:29.276Z,2.20
2023-05-23T16:18:56.549Z,2.00
2023-05-23T16:21:23.751Z,2.13
2023-05-23T16:23:50.911Z,2.30
2023-05-23T16:26:19.054Z,2.27
2023-05-23T16:28:46.284Z,2.70
2023-05-23T16:31:14.916Z,2.70
2023-05-23T16:33:42.460Z,2.53
2023-05-23T16:36:09.632Z,2.73
2023-05-23T16:38:36.860Z,3.13
2023-05-23T16:41:04.072Z,2.70
2023-05-23T16:43:31.246Z,2.77
2023-05-23T16:45:58.566Z,2.87
2023-05-23T16:48:25.805Z,2.53
2023-05-23T16:50:54.601Z,2.80
2023-05-23T16:53:22.465Z,3.00
2023-05-23T16:55:49.827Z,2.70
2023-05-23T16:58:19.269Z,2.97
2023-05-23T17:00:48.176Z,2.80
2023-05-23T17:03:15.508Z,2.37
2023-05-23T17:05:43.027Z,2.10
2023-05-23T17:08:10.631Z,2.00
2023-05-23T17:10:37.816Z,2.03
2023-05-23T17:13:05.095Z,2.00
2023-05-23T17:15:32.292Z,2.10
2023-05-23T17:17:59.503Z,2.00
2023-05-23T17:20:26.886Z,2.30
2023-05-23T17:22:55.205Z,2.00
2023-05-23T17:25:22.439Z,2.43
2023-05-23T17:27:49.566Z,2.60
2023-05-23T17:30:19.553Z,2.73
2023-05-23T17:32:49.831Z,2.53
2023-05-23T17:35:17.110Z,2.60
2023-05-23T17:37:45.010Z,2.27
2023-05-23T17:40:12.799Z,2.10
2023-05-23T17:42:40.772Z,2.00
2023-05-23T17:45:09.352Z,1.70
2023-05-23T17:47:36.542Z,1.83
2023-05-23T17:50:07.471Z,2.20
2023-05-23T17:52:35.025Z,1.83
2023-05-23T17:55:02.317Z,1.90
2023-05-23T17:57:32.498Z,1.40
2023-05-23T18:00:00.192Z,1.20
2023-05-23T18:02:27.784Z,1.43
2023-05-23T18:04:55.702Z,1.50
2023-05-23T18:07:22.918Z,1.43
2023-05-23T18:09:50.104Z,1.80
2023-05-23T18:12:17.734Z,1.50
2023-05-23T18:14:45.582Z,1.60
2023-05-23T18:17:13.096Z,1.87
2023-05-23T18:19:40.615Z,1.40
2023-05-23T18:22:07.874Z,1.57
2023-05-23T18:24:35.036Z,1.97
2023-05-23T18:27:04.453Z,1.97
2023-05-23T18:29:31.886Z,2.00
2023-05-23T18:31:59.015Z,2.20
2023-05-23T18:34:29.023Z,2.40
2023-05-23T18:36:56.662Z,2.27
2023-05-23T18:39:24.047Z,2.00
2023-05-23T18:41:51.220Z,2.10
2023-05-23T18:44:20.718Z,2.23
2023-05-23T18:46:48.341Z,2.40
2023-05-23T18:49:15.654Z,2.50
2023-05-23T18:51:43.217Z,2.57
2023-05-23T18:54:10.372Z,2.70
2023-05-23T18:56:37.485Z,3.10
2023-05-23T18:59:04.666Z,2.60
2023-05-23T19:01:31.853Z,2.80
2023-05-23T19:03:59.189Z,3.27
2023-05-23T19:06:27.651Z,3.67
2023-05-23T19:08:54.775Z,3.70
2023-05-23T19:11:22.554Z,3.97
2023-05-23T19:13:49.934Z,4.13
2023-05-23T19:16:17.464Z,4.07
2023-05-23T19:18:45.075Z,4.13
2023-05-23T19:21:12.815Z,3.83
2023-05-23T19:23:40.028Z,4.27
2023-05-23T19:26:07.669Z,4.40
2023-05-23T19:28:34.823Z,4.83
2023-05-23T19:31:02.018Z,4.90
2023-05-23T19:33:29.121Z,4.93
2023-05-23T19:35:56.273Z,5.50
2023-05-23T19:38:23.466Z,5.30
2023-05-23T19:40:50.614Z,5.17
2023-05-23T19:43:17.920Z,5.50
2023-05-23T19:45:45.047Z,5.10
2023-05-23T19:48:12.309Z,5.77
2023-05-23T19:50:41.072Z,5.13
2023-05-23T19:53:08.298Z,4.90
2023-05-23T19:55:35.598Z,5.27
2023-05-23T19:58:02.913Z,4.63
2023-05-23T20:00:30.036Z,5.30
2023-05-23T20:02:57.578Z,5.20
2023-05-23T20:05:24.839Z,4.63
2023-05-23T20:07:52.856Z,4.90
2023-05-23T20:10:20.062Z,5.47
2023-05-23T20:12:48.269Z,4.90
2023-05-23T20:15:19.662Z,4.57
2023-05-23T20:17:52.539Z,4.87
2023-05-23T20:20:19.759Z,4.37
2023-05-23T20:22:46.860Z,4.73
2023-05-23T20:25:14.121Z,4.77
2023-05-23T20:27:41.274Z,4.37
2023-05-23T20:30:08.827Z,4.73
2023-05-23T20:32:36.021Z,4.53
2023-05-23T20:35:03.603Z,4.90
2023-05-23T20:37:30.819Z,4.73
2023-05-23T20:39:58.210Z,4.47
2023-05-23T20:42:26.597Z,4.40
2023-05-23T20:44:54.296Z,4.93
2023-05-23T20:47:21.399Z,4.43
2023-05-23T20:49:49.067Z,4.40
2023-05-23T20:52:16.268Z,4.40
2023-05-23T20:54:43.431Z,4.67
2023-05-23T20:57:10.597Z,3.90
2023-05-23T20:59:38.235Z,3.73
2023-05-23T21:02:05.652Z,4.37
2023-05-23T21:04:32.848Z,4.07
2023-05-23T21:07:01.283Z,4.03
2023-05-23T21:09:28.610Z,3.83
2023-05-23T21:11:57.367Z,3.83
2023-05-23T21:14:24.583Z,3.90
2023-05-23T21:16:52.039Z,4.10
2023-05-23T21:19:19.344Z,4.10
2023-05-23T21:21:46.576Z,4.27
2023-05-23T21:24:14.785Z,3.83
2023-05-23T21:26:41.949Z,3.70
2023-05-23T21:29:09.062Z,4.20
2023-05-23T21:31:41.329Z,4.07
2023-05-23T21:34:22.343Z,3.87
2023-05-23T21:36:51.772Z,3.93
2023-05-23T21:39:18.916Z,3.90
2023-05-23T21:41:46.057Z,3.90
2023-05-23T21:44:15.588Z,3.97
2023-05-23T21:46:42.843Z,3.90
2023-05-23T21:49:10.178Z,3.87
2023-05-23T21:51:38.132Z,4.10
2023-05-23T21:54:05.266Z,4.27
2023-05-23T21:56:32.386Z,4.07
2023-05-23T21:58:59.868Z,3.80
2023-05-23T22:01:27.050Z,4.00
2023-05-23T22:03:54.355Z,3.97
2023-05-23T22:06:21.647Z,4.10
2023-05-23T22:08:48.796Z,3.70
2023-05-23T22:11:15.924Z,4.10
2023-05-23T22:13:43.110Z,3.60
2023-05-23T22:16:10.301Z,3.77
2023-05-23T22:18:51.189Z,3.70
2023-05-23T22:21:19.538Z,3.73
2023-05-23T22:23:46.748Z,3.57
2023-05-23T22:26:14.017Z,3.53
2023-05-23T22:28:41.214Z,3.57
2023-05-23T22:31:09.821Z,3.67
2023-05-23T22:33:38.383Z,3.37
2023-05-23T22:36:06.418Z,3.60
2023-05-23T22:38:33.507Z,3.70
2023-05-23T22:41:00.768Z,3.30
2023-05-23T22:43:28.987Z,3.43
2023-05-23T22:45:56.323Z,3.57
2023-05-23T22:48:24.848Z,3.50
2023-05-23T22:50:55.160Z,3.50
2023-05-23T22:53:22.679Z,3.50
2023-05-23T22:55:50.187Z,3.63
2023-05-23T22:58:17.672Z,3.53
2023-05-23T23:00:45.418Z,3.20
2023-05-23T23:03:15.213Z,3.23
2023-05-23T23:05:42.978Z,3.27
2023-05-23T23:08:10.189Z,3.33
2023-05-23T23:10:37.284Z,3.43
2023-05-23T23:13:04.740Z,3.30
2023-05-23T23:15:33.622Z,3.10
2023-05-23T23:18:01.138Z,2.70
2023-05-23T23:20:28.903Z,2.90
2023-05-23T23:22:56.112Z,2.63
2023-05-23T23:25:23.657Z,2.97
2023-05-23T23:27:50.905Z,2.53
2023-05-23T23:30:18.120Z,3.03
2023-05-23T23:32:45.259Z,3.07
2023-05-23T23:35:12.404Z,2.50
2023-05-23T23:37:39.525Z,2.90
2023-05-23T23:40:08.365Z,2.80
2023-05-23T23:42:35.696Z,2.70
2023-05-23T23:45:02.918Z,2.97
2023-05-23T23:47:30.163Z,3.03
2023-05-23T23:49:57.633Z,2.90
2023-05-23T23:52:24.734Z,2.77
2023-05-23T23:54:51.852Z,2.93
2023-05-23T23:57:19.381Z,2.90
2023-05-23T23:59:46.682Z,2.77
